createdAt,value
2018-12-06T00:00:35.511Z,44.00
2018-12-06T00:03:05.620Z,51.07
2018-12-06T00:05:35.850Z,49.70
2018-12-06T00:08:16.815Z,46.07
2018-12-06T00:10:47.080Z,54.53
2018-12-06T00:13:17.151Z,48.47
2018-12-06T00:15:47.228Z,59.73
2018-12-06T00:18:17.329Z,61.93
2018-12-06T00:20:47.468Z,72.33
2018-12-06T00:23:17.504Z,65.70
2018-12-06T00:25:47.633Z,60.00
2018-12-06T00:28:17.560Z,43.47
2018-12-06T00:30:47.624Z,61.03
2018-12-06T00:33:17.606Z,55.53
2018-12-06T00:35:47.654Z,56.10
2018-12-06T00:38:17.746Z,61.20
2018-12-06T00:40:47.827Z,59.70
2018-12-06T00:43:17.970Z,49.43
2018-12-06T00:45:48.040Z,56.73
2018-12-06T00:48:18.187Z,54.90
2018-12-06T00:50:48.203Z,62.07
2018-12-06T00:53:18.118Z,55.43
2018-12-06T00:55:48.262Z,55.80
2018-12-06T00:58:18.507Z,60.93
2018-12-06T01:00:48.601Z,58.80
2018-12-06T01:03:18.806Z,58.90
2018-12-06T01:05:48.825Z,58.13
2018-12-06T01:08:19.025Z,59.17
2018-12-06T01:10:49.077Z,59.30
2018-12-06T01:13:18.870Z,55.43
2018-12-06T01:15:48.684Z,60.63
2018-12-06T01:18:18.518Z,55.67
2018-12-06T01:20:48.344Z,57.30
2018-12-06T01:23:18.259Z,66.73
2018-12-06T01:25:48.254Z,53.87
2018-12-06T01:28:18.237Z,67.43
2018-12-06T01:30:48.294Z,57.33
2018-12-06T01:33:18.406Z,60.33
2018-12-06T01:35:48.213Z,57.53
2018-12-06T01:38:18.126Z,60.87
2018-12-06T01:40:48.109Z,65.67
2018-12-06T01:43:18.108Z,53.40
2018-12-06T01:45:48.327Z,73.53
2018-12-06T01:48:18.740Z,78.27
2018-12-06T01:50:48.647Z,81.93
2018-12-06T01:53:18.496Z,82.60
2018-12-06T01:55:48.350Z,80.70
2018-12-06T01:58:18.232Z,88.10
2018-12-06T02:00:48.139Z,73.90
2018-12-06T02:03:17.940Z,85.77
2018-12-06T02:05:47.645Z,95.10
2018-12-06T02:08:17.540Z,126.10
2018-12-06T02:10:47.448Z,117.97
2018-12-06T02:13:17.358Z,146.37
2018-12-06T02:15:47.179Z,148.20
2018-12-06T02:18:17.073Z,156.37
2018-12-06T02:20:46.942Z,207.57
2018-12-06T02:23:16.850Z,396.00
2018-12-06T02:25:46.805Z,467.07
2018-12-06T02:28:16.656Z,349.80
2018-12-06T02:30:46.512Z,426.87
2018-12-06T02:33:16.452Z,527.57
2018-12-06T02:35:46.557Z,494.23
2018-12-06T02:38:16.506Z,640.37
2018-12-06T02:40:46.596Z,310.50
2018-12-06T02:43:16.497Z,249.83
2018-12-06T02:45:46.401Z,359.07
2018-12-06T02:48:16.228Z,213.23
2018-12-06T02:50:46.180Z,103.77
2018-12-06T02:53:16.072Z,89.97
2018-12-06T02:55:46.055Z,86.33
2018-12-06T02:58:15.957Z,262.50
2018-12-06T03:00:45.955Z,204.93
2018-12-06T03:03:15.896Z,492.27
2018-12-06T03:05:45.827Z,492.00
2018-12-06T03:08:15.626Z,480.60
2018-12-06T03:10:45.463Z,263.90
2018-12-06T03:13:15.373Z,91.60
2018-12-06T03:15:45.463Z,131.27
2018-12-06T03:18:15.423Z,616.03
2018-12-06T03:20:45.521Z,134.83
2018-12-06T03:23:15.417Z,61.70
2018-12-06T03:25:45.334Z,65.47
2018-12-06T03:28:15.183Z,51.27
2018-12-06T03:30:45.140Z,49.93
2018-12-06T03:33:15.055Z,38.37
2018-12-06T03:35:45.098Z,40.27
2018-12-06T03:38:14.979Z,37.63
2018-12-06T03:40:44.818Z,39.27
2018-12-06T03:43:14.716Z,43.57
2018-12-06T03:45:44.614Z,35.33
2018-12-06T03:48:14.392Z,34.30
2018-12-06T03:50:44.253Z,41.60
2018-12-06T03:53:14.199Z,39.33
2018-12-06T03:55:44.104Z,29.17
2018-12-06T03:58:14.120Z,29.60
2018-12-06T04:00:44.126Z,29.13
2018-12-06T04:03:14.057Z,33.23
2018-12-06T04:05:43.929Z,25.77
2018-12-06T04:08:13.803Z,33.10
2018-12-06T04:10:44.667Z,25.93
2018-12-06T04:13:14.686Z,30.43
2018-12-06T04:15:44.566Z,28.83
2018-12-06T04:18:14.453Z,25.77
2018-12-06T04:20:44.227Z,25.07
2018-12-06T04:23:14.174Z,26.60
2018-12-06T04:25:44.143Z,28.63
2018-12-06T04:28:14.041Z,24.23
2018-12-06T04:30:44.025Z,25.30
2018-12-06T04:33:16.053Z,25.87
2018-12-06T04:35:45.941Z,24.07
2018-12-06T04:38:15.866Z,21.93
2018-12-06T04:40:45.792Z,21.67
2018-12-06T04:43:15.923Z,27.40
2018-12-06T04:45:45.853Z,24.80
2018-12-06T04:48:21.893Z,26.83
2018-12-06T04:50:48.009Z,27.33
2018-12-06T04:53:17.990Z,24.23
2018-12-06T04:55:47.927Z,24.63
2018-12-06T04:58:17.902Z,22.77
2018-12-06T05:00:47.865Z,29.83
2018-12-06T05:03:17.741Z,23.80
2018-12-06T05:05:47.619Z,27.00
2018-12-06T05:08:17.549Z,24.17
2018-12-06T05:10:47.479Z,21.27
2018-12-06T05:13:17.474Z,20.30
2018-12-06T05:15:47.554Z,18.20
2018-12-06T05:18:17.824Z,20.80
2018-12-06T05:20:48.028Z,22.57
2018-12-06T05:23:18.108Z,20.13
2018-12-06T05:25:48.265Z,22.00
2018-12-06T05:28:18.165Z,22.70
2018-12-06T05:30:47.929Z,24.43
2018-12-06T05:33:17.641Z,24.17
2018-12-06T05:35:47.578Z,21.03
2018-12-06T05:38:17.552Z,25.47
2018-12-06T05:40:58.121Z,20.23
2018-12-06T05:43:36.067Z,21.87
2018-12-06T05:46:06.374Z,22.63
2018-12-06T05:48:36.357Z,22.13
2018-12-06T05:51:06.543Z,26.90
2018-12-06T05:53:36.453Z,21.07
2018-12-06T05:56:06.589Z,22.67
2018-12-06T05:58:36.381Z,27.93
2018-12-06T06:01:06.595Z,21.40
2018-12-06T06:03:36.667Z,23.47
2018-12-06T06:06:06.641Z,23.77
2018-12-06T06:08:36.878Z,23.20
2018-12-06T06:11:06.944Z,21.67
2018-12-06T06:13:36.825Z,24.40
2018-12-06T06:16:06.654Z,27.60
2018-12-06T06:18:36.675Z,21.87
2018-12-06T06:21:06.603Z,28.50
2018-12-06T06:23:36.562Z,24.23
2018-12-06T06:26:06.588Z,23.70
2018-12-06T06:28:36.716Z,22.53
2018-12-06T06:31:06.679Z,26.57
2018-12-06T06:33:36.789Z,24.17
2018-12-06T06:36:06.949Z,22.93
2018-12-06T06:38:36.994Z,24.63
2018-12-06T06:41:07.528Z,27.20
2018-12-06T06:43:37.621Z,25.07
2018-12-06T06:46:07.759Z,22.83
2018-12-06T06:48:37.972Z,25.57
2018-12-06T06:51:08.246Z,27.37
2018-12-06T06:53:38.370Z,24.30
2018-12-06T06:56:09.382Z,23.30
2018-12-06T06:58:40.483Z,30.03
2018-12-06T07:01:11.959Z,29.80
2018-12-06T07:03:42.388Z,26.23
2018-12-06T07:06:12.449Z,22.60
2018-12-06T07:08:43.072Z,26.03
2018-12-06T07:11:13.357Z,23.70
2018-12-06T07:13:43.593Z,20.33
2018-12-06T07:16:13.715Z,19.80
2018-12-06T07:18:43.931Z,22.33
2018-12-06T07:21:14.201Z,24.63
2018-12-06T07:23:44.261Z,21.47
2018-12-06T07:26:14.468Z,28.90
2018-12-06T07:28:44.516Z,24.63
2018-12-06T07:31:15.067Z,19.63
2018-12-06T07:33:45.023Z,19.83
2018-12-06T07:36:14.786Z,23.93
2018-12-06T07:38:46.071Z,20.23
2018-12-06T07:41:15.979Z,16.90
2018-12-06T07:43:45.765Z,19.00
2018-12-06T07:46:15.529Z,20.07
2018-12-06T07:48:45.728Z,20.00
2018-12-06T07:51:15.790Z,23.73
2018-12-06T07:53:45.897Z,24.97
2018-12-06T07:56:15.809Z,27.07
2018-12-06T07:58:45.866Z,27.77
2018-12-06T08:01:16.009Z,28.23
2018-12-06T08:03:46.134Z,22.23
2018-12-06T08:06:16.140Z,29.07
2018-12-06T08:08:46.166Z,28.50
2018-12-06T08:11:16.089Z,25.17
2018-12-06T08:13:46.094Z,26.47
2018-12-06T08:16:16.051Z,27.03
2018-12-06T08:18:46.111Z,30.50
2018-12-06T08:21:16.160Z,31.67
2018-12-06T08:23:46.354Z,35.87
2018-12-06T08:26:16.280Z,37.70
2018-12-06T08:28:46.397Z,35.93
2018-12-06T08:31:16.433Z,31.90
2018-12-06T08:33:46.431Z,29.30
2018-12-06T08:36:16.369Z,26.10
2018-12-06T08:38:46.363Z,24.80
2018-12-06T08:41:16.432Z,27.60
2018-12-06T08:43:46.281Z,28.07
2018-12-06T08:46:16.196Z,33.10
2018-12-06T08:48:46.256Z,32.17
2018-12-06T08:51:16.220Z,28.00
2018-12-06T08:53:46.277Z,30.13
2018-12-06T08:56:16.550Z,35.33
2018-12-06T08:58:46.823Z,35.37
2018-12-06T09:01:17.030Z,37.77
2018-12-06T09:03:47.495Z,33.03
2018-12-06T09:06:17.578Z,29.63
2018-12-06T09:08:47.796Z,22.10
2018-12-06T09:11:17.976Z,23.33
2018-12-06T09:13:48.218Z,24.97
2018-12-06T09:16:18.237Z,26.00
2018-12-06T09:18:48.494Z,24.77
2018-12-06T09:21:18.730Z,23.40
2018-12-06T09:23:49.060Z,23.90
2018-12-06T09:26:19.396Z,19.43
2018-12-06T09:28:49.667Z,24.57
2018-12-06T09:31:19.851Z,18.50
2018-12-06T09:34:03.463Z,25.97
2018-12-06T09:36:33.849Z,24.87
2018-12-06T09:39:05.103Z,25.50
2018-12-06T09:41:36.781Z,24.77
2018-12-06T09:44:07.079Z,26.10
2018-12-06T09:46:37.290Z,26.07
2018-12-06T09:49:07.580Z,25.07
2018-12-06T09:51:37.797Z,19.40
2018-12-06T09:54:08.029Z,22.47
2018-12-06T09:56:38.286Z,25.13
2018-12-06T09:59:08.642Z,22.63
2018-12-06T10:01:39.348Z,19.07
2018-12-06T10:04:09.519Z,24.80
2018-12-06T10:06:39.939Z,19.13
2018-12-06T10:09:10.337Z,23.60
2018-12-06T10:11:40.733Z,19.97
2018-12-06T10:14:10.993Z,25.03
2018-12-06T10:16:41.103Z,25.37
2018-12-06T10:19:11.259Z,22.03
2018-12-06T10:21:41.452Z,21.50
2018-12-06T10:24:11.457Z,23.70
2018-12-06T10:26:41.625Z,18.13
2018-12-06T10:29:11.920Z,25.90
2018-12-06T10:31:42.034Z,28.63
2018-12-06T10:34:12.385Z,27.60
2018-12-06T10:36:42.453Z,36.37
2018-12-06T10:39:12.567Z,33.57
2018-12-06T10:41:42.719Z,37.17
2018-12-06T10:44:35.648Z,39.33
2018-12-06T10:47:05.814Z,35.40
2018-12-06T10:49:36.002Z,37.63
2018-12-06T10:52:06.207Z,30.93
2018-12-06T10:54:36.487Z,37.60
2018-12-06T10:57:06.571Z,38.97
2018-12-06T10:59:36.730Z,38.93
2018-12-06T11:03:10.063Z,41.53
2018-12-06T11:05:40.312Z,36.77
2018-12-06T11:08:10.457Z,37.33
2018-12-06T11:10:40.616Z,44.27
2018-12-06T11:13:10.900Z,44.90
2018-12-06T11:15:41.217Z,52.53
2018-12-06T11:18:11.471Z,54.43
2018-12-06T11:20:41.622Z,46.47
2018-12-06T11:23:12.110Z,48.73
2018-12-06T11:25:42.498Z,52.03
2018-12-06T11:28:12.796Z,44.40
2018-12-06T11:30:42.861Z,50.20
2018-12-06T11:33:13.228Z,44.20
2018-12-06T11:35:43.424Z,45.40
2018-12-06T11:38:13.853Z,52.83
2018-12-06T11:40:43.940Z,48.47
2018-12-06T11:43:14.319Z,49.00
2018-12-06T11:45:44.509Z,48.63
2018-12-06T11:48:14.614Z,45.70
2018-12-06T11:50:44.719Z,42.10
2018-12-06T11:53:14.752Z,48.20
2018-12-06T11:55:44.848Z,44.13
2018-12-06T11:58:15.075Z,46.00
2018-12-06T12:00:45.352Z,40.10
2018-12-06T12:03:15.638Z,47.07
2018-12-06T12:05:45.774Z,47.87
2018-12-06T12:08:15.759Z,48.93
2018-12-06T12:10:45.975Z,53.03
2018-12-06T12:13:16.177Z,43.93
2018-12-06T12:15:48.468Z,47.37
2018-12-06T12:18:18.680Z,37.30
2018-12-06T12:20:48.868Z,48.20
2018-12-06T12:23:19.030Z,48.83
2018-12-06T12:25:49.254Z,48.20
2018-12-06T12:28:19.499Z,48.60
2018-12-06T12:30:49.766Z,48.10
2018-12-06T12:33:20.039Z,47.20
2018-12-06T12:35:50.342Z,40.20
2018-12-06T12:38:20.640Z,51.57
2018-12-06T12:40:50.990Z,49.10
2018-12-06T12:43:21.163Z,50.20
2018-12-06T12:45:51.492Z,44.20
2018-12-06T12:48:21.633Z,47.93
2018-12-06T12:50:51.768Z,55.50
2018-12-06T12:53:23.090Z,45.43
2018-12-06T12:55:53.558Z,53.53
2018-12-06T12:58:25.191Z,50.83
2018-12-06T13:00:55.683Z,44.17
2018-12-06T13:03:25.810Z,51.90
2018-12-06T13:05:56.110Z,52.23
2018-12-06T13:08:26.186Z,42.03
2018-12-06T13:10:56.327Z,44.47
2018-12-06T13:13:26.690Z,48.23
2018-12-06T13:15:56.820Z,45.07
2018-12-06T13:18:27.036Z,44.50
2018-12-06T13:20:57.240Z,49.50
2018-12-06T13:23:27.444Z,49.77
2018-12-06T13:25:57.726Z,49.07
2018-12-06T13:28:27.936Z,43.73
2018-12-06T13:30:58.302Z,45.90
2018-12-06T13:33:28.545Z,45.73
2018-12-06T13:35:58.836Z,48.60
2018-12-06T13:38:29.098Z,50.93
2018-12-06T13:40:59.443Z,49.60
2018-12-06T13:43:29.664Z,46.27
2018-12-06T13:45:59.828Z,46.37
2018-12-06T13:48:30.005Z,46.80
2018-12-06T13:51:00.181Z,48.13
2018-12-06T13:53:30.390Z,41.23
2018-12-06T13:56:00.631Z,48.97
2018-12-06T13:58:30.773Z,47.27
2018-12-06T14:01:01.371Z,47.57
2018-12-06T14:03:32.024Z,47.83
2018-12-06T14:06:02.176Z,47.73
2018-12-06T14:08:32.301Z,50.73
2018-12-06T14:11:02.574Z,52.93
2018-12-06T14:13:32.839Z,48.40
2018-12-06T14:16:07.131Z,49.87
2018-12-06T14:18:35.550Z,53.07
2018-12-06T14:21:05.697Z,52.73
2018-12-06T14:23:35.940Z,46.57
2018-12-06T14:26:06.384Z,54.90
2018-12-06T14:28:36.469Z,55.37
2018-12-06T14:31:06.662Z,55.60
2018-12-06T14:33:36.761Z,55.67
2018-12-06T14:36:07.345Z,52.67
2018-12-06T14:38:37.382Z,53.83
2018-12-06T14:41:07.598Z,53.60
2018-12-06T14:43:37.795Z,55.20
2018-12-06T14:46:08.507Z,55.23
2018-12-06T14:48:38.744Z,60.43
2018-12-06T14:51:09.068Z,58.10
2018-12-06T14:53:39.298Z,63.10
2018-12-06T14:56:09.527Z,66.30
2018-12-06T14:58:39.577Z,63.43
2018-12-06T15:01:09.740Z,54.60
2018-12-06T15:03:39.824Z,57.13
2018-12-06T15:06:10.011Z,59.60
2018-12-06T15:08:40.124Z,57.40
2018-12-06T15:11:10.258Z,53.33
2018-12-06T15:13:40.245Z,64.87
2018-12-06T15:16:10.380Z,57.77
2018-12-06T15:18:40.373Z,61.40
2018-12-06T15:21:10.522Z,55.97
2018-12-06T15:23:41.375Z,59.03
2018-12-06T15:26:11.384Z,63.77
2018-12-06T15:29:17.660Z,63.80
2018-12-06T15:31:47.651Z,56.70
2018-12-06T15:34:17.574Z,55.30
2018-12-06T15:36:47.699Z,64.87
2018-12-06T15:39:17.779Z,60.87
2018-12-06T15:41:47.673Z,56.63
2018-12-06T15:44:17.889Z,63.97
2018-12-06T15:46:48.036Z,39.80
2018-12-06T15:49:18.044Z,59.47
2018-12-06T15:51:48.289Z,52.77
2018-12-06T15:54:18.323Z,60.87
2018-12-06T15:56:48.449Z,54.37
2018-12-06T15:59:18.501Z,54.50
2018-12-06T16:01:48.671Z,58.63
2018-12-06T16:04:18.668Z,63.57
2018-12-06T16:06:48.625Z,53.23
2018-12-06T16:09:18.539Z,62.37
2018-12-06T16:11:48.527Z,58.63
2018-12-06T16:14:18.661Z,56.77
2018-12-06T16:16:48.703Z,64.00
2018-12-06T16:19:18.661Z,59.20
2018-12-06T16:21:48.690Z,62.77
2018-12-06T16:24:18.735Z,70.37
2018-12-06T16:26:48.797Z,63.67
2018-12-06T16:29:18.710Z,64.07
2018-12-06T16:31:48.692Z,66.97
2018-12-06T16:34:18.703Z,62.37
2018-12-06T16:36:48.861Z,59.80
2018-12-06T16:39:18.911Z,80.77
2018-12-06T16:41:48.900Z,56.57
2018-12-06T16:44:19.052Z,65.20
2018-12-06T16:46:49.499Z,59.33
2018-12-06T16:49:19.702Z,47.67
2018-12-06T16:51:49.852Z,61.70
2018-12-06T16:54:20.045Z,52.07
2018-12-06T16:56:50.287Z,40.30
2018-12-06T16:59:20.469Z,57.93
2018-12-06T17:01:50.763Z,52.03
2018-12-06T17:04:20.761Z,57.37
2018-12-06T17:06:51.275Z,55.63
2018-12-06T17:09:21.314Z,60.47
2018-12-06T17:11:51.574Z,30.97
2018-12-06T17:14:21.530Z,58.50
2018-12-06T17:16:51.705Z,59.77
2018-12-06T17:19:21.727Z,59.00
2018-12-06T17:21:51.891Z,57.20
2018-12-06T17:24:21.859Z,54.13
2018-12-06T17:26:51.859Z,61.60
2018-12-06T17:29:21.917Z,56.33
2018-12-06T17:31:52.364Z,58.33
2018-12-06T17:34:23.284Z,52.00
2018-12-06T17:36:53.553Z,67.77
2018-12-06T17:39:23.932Z,54.73
2018-12-06T17:41:54.350Z,72.13
2018-12-06T17:44:24.566Z,71.90
2018-12-06T17:46:55.267Z,68.50
2018-12-06T17:49:25.494Z,57.30
2018-12-06T17:51:55.901Z,73.83
2018-12-06T17:54:26.107Z,78.97
2018-12-06T17:56:55.965Z,65.70
2018-12-06T17:59:26.059Z,78.77
2018-12-06T18:01:56.075Z,49.87
2018-12-06T18:04:26.016Z,78.43
2018-12-06T18:06:56.020Z,87.13
2018-12-06T18:09:26.217Z,73.50
2018-12-06T18:11:56.267Z,70.97
2018-12-06T18:14:26.417Z,82.70
2018-12-06T18:16:57.533Z,76.57
2018-12-06T18:19:27.618Z,81.13
2018-12-06T18:21:57.595Z,85.47
2018-12-06T18:24:27.600Z,83.73
2018-12-06T18:26:57.771Z,81.17
2018-12-06T18:29:27.899Z,67.40
2018-12-06T18:31:57.952Z,78.43
2018-12-06T18:34:29.089Z,63.90
2018-12-06T18:36:59.175Z,71.50
2018-12-06T18:39:29.127Z,62.67
2018-12-06T18:41:58.980Z,79.17
2018-12-06T18:44:29.006Z,90.07
2018-12-06T18:46:58.991Z,52.50
2018-12-06T18:49:30.176Z,90.30
2018-12-06T18:52:00.006Z,82.27
2018-12-06T18:54:29.835Z,71.37
2018-12-06T18:56:59.727Z,89.77
2018-12-06T18:59:29.626Z,96.53
2018-12-06T19:01:59.441Z,79.90
2018-12-06T19:04:29.399Z,88.23
2018-12-06T19:06:59.249Z,86.80
2018-12-06T19:09:29.061Z,79.63
2018-12-06T19:11:58.846Z,76.10
2018-12-06T19:14:28.628Z,69.23
2018-12-06T19:16:58.542Z,82.87
2018-12-06T19:19:28.396Z,84.90
2018-12-06T19:21:58.385Z,88.80
2018-12-06T19:24:28.462Z,100.33
2018-12-06T19:26:58.518Z,98.50
2018-12-06T19:29:28.476Z,87.17
2018-12-06T19:31:58.618Z,92.83
2018-12-06T19:34:28.566Z,87.63
2018-12-06T19:36:58.530Z,85.47
2018-12-06T19:39:28.571Z,61.83
2018-12-06T19:41:58.593Z,93.37
2018-12-06T19:44:29.033Z,88.53
2018-12-06T19:46:59.372Z,75.43
2018-12-06T19:49:29.395Z,87.80
2018-12-06T19:51:59.586Z,91.93
2018-12-06T19:54:29.592Z,90.40
2018-12-06T19:56:59.710Z,95.67
2018-12-06T19:59:29.861Z,95.20
2018-12-06T20:01:59.933Z,82.47
2018-12-06T20:04:29.930Z,76.70
2018-12-06T20:06:59.905Z,77.20
2018-12-06T20:09:30.096Z,91.97
2018-12-06T20:12:00.248Z,88.23
2018-12-06T20:14:30.148Z,69.77
2018-12-06T20:17:00.140Z,69.17
2018-12-06T20:19:30.461Z,59.43
2018-12-06T20:22:00.558Z,58.43
2018-12-06T20:24:30.945Z,86.40
2018-12-06T20:27:01.162Z,88.90
2018-12-06T20:29:31.327Z,69.90
2018-12-06T20:32:01.453Z,97.40
2018-12-06T20:34:32.153Z,85.93
2018-12-06T20:37:02.240Z,92.17
2018-12-06T20:39:32.477Z,100.50
2018-12-06T20:42:02.544Z,73.40
2018-12-06T20:44:33.952Z,89.67
2018-12-06T20:47:04.238Z,75.77
2018-12-06T20:49:34.637Z,103.40
2018-12-06T20:52:05.158Z,76.77
2018-12-06T20:54:35.232Z,83.83
2018-12-06T20:57:05.457Z,78.70
2018-12-06T20:59:35.734Z,73.43
2018-12-06T21:02:05.923Z,87.73
2018-12-06T21:04:36.172Z,96.47
2018-12-06T21:07:06.384Z,86.63
2018-12-06T21:09:36.739Z,99.07
2018-12-06T21:12:07.063Z,98.90
2018-12-06T21:14:37.340Z,95.10
2018-12-06T21:17:07.382Z,73.43
2018-12-06T21:19:37.530Z,116.10
2018-12-06T21:22:07.497Z,97.17
2018-12-06T21:24:37.453Z,95.83
2018-12-06T21:27:10.225Z,83.97
2018-12-06T21:29:40.346Z,111.13
2018-12-06T21:32:10.143Z,102.63
2018-12-06T21:34:39.872Z,104.80
2018-12-06T21:37:11.673Z,97.77
2018-12-06T21:39:45.632Z,117.47
2018-12-06T21:42:15.322Z,116.63
2018-12-06T21:44:44.934Z,85.10
2018-12-06T21:47:29.120Z,98.27
2018-12-06T21:49:58.698Z,99.07
2018-12-06T21:52:29.171Z,97.90
2018-12-06T21:54:58.722Z,59.97
2018-12-06T21:57:29.524Z,107.43
2018-12-06T21:59:59.427Z,99.43
2018-12-06T22:02:29.345Z,80.70
2018-12-06T22:04:59.155Z,93.93
2018-12-06T22:07:28.881Z,83.00
2018-12-06T22:09:58.478Z,97.10
2018-12-06T22:12:29.313Z,90.67
2018-12-06T22:14:58.997Z,96.47
2018-12-06T22:17:28.736Z,86.87
2018-12-06T22:19:58.379Z,105.67
2018-12-06T22:22:29.081Z,111.83
2018-12-06T22:24:58.764Z,98.67
2018-12-06T22:27:28.429Z,63.23
2018-12-06T22:29:58.123Z,98.10
2018-12-06T22:32:28.584Z,47.17
2018-12-06T22:34:58.186Z,90.03
2018-12-06T22:37:28.844Z,110.40
2018-12-06T22:39:58.522Z,82.13
2018-12-06T22:42:28.094Z,106.23
2018-12-06T22:46:02.153Z,110.77
2018-12-06T22:48:31.893Z,80.20
2018-12-06T22:51:01.574Z,108.00
2018-12-06T22:53:31.285Z,95.33
2018-12-06T22:56:00.905Z,100.73
2018-12-06T22:58:30.627Z,63.40
2018-12-06T23:01:01.117Z,96.23
2018-12-06T23:03:32.897Z,92.47
2018-12-06T23:06:02.526Z,39.07
2018-12-06T23:08:32.273Z,107.53
2018-12-06T23:11:01.943Z,109.33
2018-12-06T23:13:32.734Z,96.70
2018-12-06T23:16:02.374Z,116.90
2018-12-06T23:18:31.989Z,104.37
2018-12-06T23:21:01.658Z,112.03
2018-12-06T23:23:31.326Z,104.20
2018-12-06T23:26:01.144Z,103.87
2018-12-06T23:28:30.809Z,114.40
2018-12-06T23:31:00.533Z,109.13
2018-12-06T23:33:32.140Z,110.53
2018-12-06T23:36:01.929Z,92.57
2018-12-06T23:38:31.592Z,92.43
2018-12-06T23:41:01.202Z,88.60
2018-12-06T23:43:30.871Z,110.77
2018-12-06T23:46:00.622Z,70.53
2018-12-06T23:48:30.265Z,109.73
2018-12-06T23:51:10.704Z,104.13
2018-12-06T23:53:40.302Z,109.47
2018-12-06T23:56:10.030Z,82.23
2018-12-06T23:58:39.731Z,81.77
